sensor_id;sensor_type;location;lat;lon;timestamp;P1;durP1;ratioP1;P2;durP2;ratioP2
12792;SDS011;6460;42.684;23.260;2023-12-04T00:02:11;7.63;;;5.50;;
12792;SDS011;6460;42.684;23.260;2023-12-04T00:04:38;9.03;;;5.37;;
12792;SDS011;6460;42.684;23.260;2023-12-04T00:09:37;6.43;;;5.17;;
12792;SDS011;6460;42.684;23.260;2023-12-04T00:12:08;5.63;;;4.43;;
12792;SDS011;6460;42.684;23.260;2023-12-04T00:14:35;7.93;;;5.57;;
12792;SDS011;6460;42.684;23.260;2023-12-04T00:17:05;6.60;;;4.73;;
12792;SDS011;6460;42.684;23.260;2023-12-04T00:24:43;7.20;;;5.07;;
12792;SDS011;6460;42.684;23.260;2023-12-04T00:27:13;7.63;;;5.00;;
12792;SDS011;6460;42.684;23.260;2023-12-04T00:29:41;9.80;;;5.43;;
12792;SDS011;6460;42.684;23.260;2023-12-04T00:32:11;7.97;;;3.97;;
12792;SDS011;6460;42.684;23.260;2023-12-04T00:37:14;7.57;;;4.77;;
12792;SDS011;6460;42.684;23.260;2023-12-04T00:44:51;8.43;;;5.73;;
12792;SDS011;6460;42.684;23.260;2023-12-04T00:47:21;7.90;;;5.67;;
12792;SDS011;6460;42.684;23.260;2023-12-04T00:49:49;7.37;;;5.40;;
12792;SDS011;6460;42.684;23.260;2023-12-04T00:52:17;8.43;;;5.70;;
12792;SDS011;6460;42.684;23.260;2023-12-04T00:54:45;6.63;;;4.47;;
12792;SDS011;6460;42.684;23.260;2023-12-04T00:57:13;7.30;;;5.17;;
12792;SDS011;6460;42.684;23.260;2023-12-04T00:59:41;7.93;;;5.67;;
12792;SDS011;6460;42.684;23.260;2023-12-04T01:02:09;9.93;;;5.93;;
12792;SDS011;6460;42.684;23.260;2023-12-04T01:04:41;6.93;;;4.67;;
12792;SDS011;6460;42.684;23.260;2023-12-04T01:07:09;7.07;;;5.13;;
12792;SDS011;6460;42.684;23.260;2023-12-04T01:09:37;7.87;;;5.67;;
12792;SDS011;6460;42.684;23.260;2023-12-04T01:12:07;7.40;;;4.97;;
12792;SDS011;6460;42.684;23.260;2023-12-04T01:14:38;6.83;;;4.43;;
12792;SDS011;6460;42.684;23.260;2023-12-04T01:17:06;10.00;;;6.37;;
12792;SDS011;6460;42.684;23.260;2023-12-04T01:19:36;8.47;;;5.37;;
12792;SDS011;6460;42.684;23.260;2023-12-04T01:32:26;7.33;;;5.07;;
12792;SDS011;6460;42.684;23.260;2023-12-04T01:58:11;8.60;;;5.27;;
12792;SDS011;6460;42.684;23.260;2023-12-04T02:00:39;6.03;;;4.27;;
12792;SDS011;6460;42.684;23.260;2023-12-04T02:03:07;8.90;;;5.43;;
12792;SDS011;6460;42.684;23.260;2023-12-04T02:05:37;6.87;;;5.10;;
12792;SDS011;6460;42.684;23.260;2023-12-04T02:08:06;7.70;;;5.30;;
12792;SDS011;6460;42.684;23.260;2023-12-04T02:13:11;8.50;;;5.70;;
12792;SDS011;6460;42.684;23.260;2023-12-04T02:18:15;8.73;;;4.90;;
12792;SDS011;6460;42.684;23.260;2023-12-04T02:20:44;9.27;;;5.77;;
12792;SDS011;6460;42.684;23.260;2023-12-04T02:23:12;6.77;;;4.77;;
12792;SDS011;6460;42.684;23.260;2023-12-04T02:25:44;6.87;;;4.77;;
12792;SDS011;6460;42.684;23.260;2023-12-04T02:28:13;7.57;;;5.27;;
12792;SDS011;6460;42.684;23.260;2023-12-04T03:12:04;6.23;;;4.17;;
12792;SDS011;6460;42.684;23.260;2023-12-04T03:14:33;5.17;;;2.93;;
12792;SDS011;6460;42.684;23.260;2023-12-04T03:17:01;7.10;;;4.50;;
12792;SDS011;6460;42.684;23.260;2023-12-04T03:29:51;5.80;;;4.50;;
12792;SDS011;6460;42.684;23.260;2023-12-04T03:32:19;5.07;;;4.30;;
12792;SDS011;6460;42.684;23.260;2023-12-04T03:34:48;6.63;;;4.57;;
12792;SDS011;6460;42.684;23.260;2023-12-04T03:37:16;8.00;;;4.63;;
12792;SDS011;6460;42.684;23.260;2023-12-04T03:50:07;8.07;;;3.27;;
12792;SDS011;6460;42.684;23.260;2023-12-04T03:52:34;7.10;;;4.70;;
12792;SDS011;6460;42.684;23.260;2023-12-04T03:55:03;6.50;;;4.90;;
12792;SDS011;6460;42.684;23.260;2023-12-04T03:57:31;4.93;;;3.67;;
12792;SDS011;6460;42.684;23.260;2023-12-04T04:00:02;7.80;;;4.93;;
12792;SDS011;6460;42.684;23.260;2023-12-04T04:02:30;6.63;;;4.17;;
12792;SDS011;6460;42.684;23.260;2023-12-04T04:04:57;6.63;;;3.97;;
12792;SDS011;6460;42.684;23.260;2023-12-04T04:07:30;7.03;;;4.77;;
12792;SDS011;6460;42.684;23.260;2023-12-04T04:09:58;9.33;;;5.17;;
12792;SDS011;6460;42.684;23.260;2023-12-04T04:12:26;7.47;;;4.93;;
12792;SDS011;6460;42.684;23.260;2023-12-04T04:14:55;7.20;;;4.57;;
12792;SDS011;6460;42.684;23.260;2023-12-04T04:17:25;6.90;;;4.30;;
12792;SDS011;6460;42.684;23.260;2023-12-04T04:19:53;7.93;;;5.33;;
12792;SDS011;6460;42.684;23.260;2023-12-04T04:22:22;7.20;;;5.07;;
12792;SDS011;6460;42.684;23.260;2023-12-04T04:24:51;8.47;;;5.87;;
12792;SDS011;6460;42.684;23.260;2023-12-04T04:27:20;6.63;;;4.60;;
12792;SDS011;6460;42.684;23.260;2023-12-04T04:29:49;7.87;;;4.77;;
12792;SDS011;6460;42.684;23.260;2023-12-04T04:37:28;8.97;;;5.30;;
12792;SDS011;6460;42.684;23.260;2023-12-04T04:39:58;10.80;;;5.37;;
12792;SDS011;6460;42.684;23.260;2023-12-04T04:45:04;6.27;;;5.10;;
12792;SDS011;6460;42.684;23.260;2023-12-04T04:47:33;7.73;;;5.50;;
12792;SDS011;6460;42.684;23.260;2023-12-04T04:50:01;10.77;;;5.73;;
12792;SDS011;6460;42.684;23.260;2023-12-04T04:52:28;7.97;;;5.13;;
12792;SDS011;6460;42.684;23.260;2023-12-04T05:00:09;7.40;;;5.60;;
12792;SDS011;6460;42.684;23.260;2023-12-04T05:02:37;8.07;;;5.37;;
12792;SDS011;6460;42.684;23.260;2023-12-04T05:05:06;6.77;;;4.93;;
12792;SDS011;6460;42.684;23.260;2023-12-04T05:14:46;7.80;;;5.53;;
12792;SDS011;6460;42.684;23.260;2023-12-04T05:45:34;9.90;;;6.07;;
12792;SDS011;6460;42.684;23.260;2023-12-04T05:48:02;9.90;;;6.50;;
12792;SDS011;6460;42.684;23.260;2023-12-04T05:50:30;9.07;;;6.20;;
12792;SDS011;6460;42.684;23.260;2023-12-04T05:52:58;9.20;;;5.93;;
12792;SDS011;6460;42.684;23.260;2023-12-04T05:55:25;9.63;;;6.10;;
12792;SDS011;6460;42.684;23.260;2023-12-04T05:57:53;9.80;;;6.60;;
12792;SDS011;6460;42.684;23.260;2023-12-04T06:00:25;8.90;;;6.37;;
12792;SDS011;6460;42.684;23.260;2023-12-04T06:02:54;10.23;;;6.30;;
12792;SDS011;6460;42.684;23.260;2023-12-04T06:05:21;8.97;;;6.33;;
12792;SDS011;6460;42.684;23.260;2023-12-04T06:07:50;11.93;;;7.00;;
12792;SDS011;6460;42.684;23.260;2023-12-04T06:10:17;10.50;;;7.10;;
12792;SDS011;6460;42.684;23.260;2023-12-04T06:12:44;11.40;;;6.97;;
12792;SDS011;6460;42.684;23.260;2023-12-04T06:15:13;11.17;;;7.67;;
12792;SDS011;6460;42.684;23.260;2023-12-04T06:17:41;9.57;;;7.03;;
12792;SDS011;6460;42.684;23.260;2023-12-04T06:20:31;9.57;;;6.70;;
12792;SDS011;6460;42.684;23.260;2023-12-04T06:51:39;11.57;;;6.87;;
12792;SDS011;6460;42.684;23.260;2023-12-04T08:08:03;6.57;;;4.47;;
12792;SDS011;6460;42.684;23.260;2023-12-04T08:23:17;6.73;;;3.97;;
12792;SDS011;6460;42.684;23.260;2023-12-04T08:32:07;4.47;;;3.17;;
12792;SDS011;6460;42.684;23.260;2023-12-04T08:35:00;5.50;;;3.20;;
12792;SDS011;6460;42.684;23.260;2023-12-04T08:37:56;2.70;;;2.13;;
12792;SDS011;6460;42.684;23.260;2023-12-04T09:06:58;4.73;;;3.20;;
12792;SDS011;6460;42.684;23.260;2023-12-04T09:16:15;4.90;;;3.60;;
12792;SDS011;6460;42.684;23.260;2023-12-04T09:22:11;7.00;;;4.50;;
12792;SDS011;6460;42.684;23.260;2023-12-04T10:51:57;4.27;;;3.40;;
12792;SDS011;6460;42.684;23.260;2023-12-04T10:54:25;4.97;;;3.27;;
12792;SDS011;6460;42.684;23.260;2023-12-04T11:48:45;5.83;;;4.50;;
12792;SDS011;6460;42.684;23.260;2023-12-04T13:06:05;7.77;;;5.50;;
12792;SDS011;6460;42.684;23.260;2023-12-04T13:08:34;7.60;;;5.60;;
12792;SDS011;6460;42.684;23.260;2023-12-04T13:11:01;10.13;;;6.33;;
12792;SDS011;6460;42.684;23.260;2023-12-04T13:13:30;9.87;;;6.97;;
12792;SDS011;6460;42.684;23.260;2023-12-04T13:15:57;8.33;;;6.73;;
12792;SDS011;6460;42.684;23.260;2023-12-04T13:18:25;10.23;;;7.53;;
12792;SDS011;6460;42.684;23.260;2023-12-04T13:20:53;10.23;;;6.90;;
12792;SDS011;6460;42.684;23.260;2023-12-04T13:23:23;7.80;;;6.23;;
12792;SDS011;6460;42.684;23.260;2023-12-04T13:25:50;10.70;;;6.90;;
12792;SDS011;6460;42.684;23.260;2023-12-04T13:28:19;10.50;;;7.30;;
12792;SDS011;6460;42.684;23.260;2023-12-04T13:30:47;9.90;;;7.70;;
12792;SDS011;6460;42.684;23.260;2023-12-04T13:33:14;11.53;;;8.23;;
12792;SDS011;6460;42.684;23.260;2023-12-04T13:35:42;10.73;;;7.53;;
12792;SDS011;6460;42.684;23.260;2023-12-04T13:38:10;13.37;;;8.60;;
12792;SDS011;6460;42.684;23.260;2023-12-04T13:40:40;12.30;;;8.10;;
12792;SDS011;6460;42.684;23.260;2023-12-04T13:43:17;17.13;;;10.80;;
12792;SDS011;6460;42.684;23.260;2023-12-04T13:46:03;16.97;;;10.70;;
12792;SDS011;6460;42.684;23.260;2023-12-04T13:48:35;16.67;;;11.77;;
12792;SDS011;6460;42.684;23.260;2023-12-04T13:51:06;22.17;;;13.93;;
12792;SDS011;6460;42.684;23.260;2023-12-04T13:53:34;18.80;;;12.33;;
12792;SDS011;6460;42.684;23.260;2023-12-04T13:56:06;15.33;;;10.90;;
12792;SDS011;6460;42.684;23.260;2023-12-04T13:58:50;17.00;;;11.33;;
12792;SDS011;6460;42.684;23.260;2023-12-04T14:01:31;19.10;;;14.37;;
12792;SDS011;6460;42.684;23.260;2023-12-04T14:03:59;21.80;;;13.43;;
12792;SDS011;6460;42.684;23.260;2023-12-04T14:06:27;15.47;;;11.70;;
12792;SDS011;6460;42.684;23.260;2023-12-04T14:08:55;19.73;;;13.63;;
12792;SDS011;6460;42.684;23.260;2023-12-04T14:11:24;20.57;;;13.43;;
12792;SDS011;6460;42.684;23.260;2023-12-04T14:13:52;19.27;;;13.63;;
12792;SDS011;6460;42.684;23.260;2023-12-04T14:16:20;20.37;;;14.40;;
12792;SDS011;6460;42.684;23.260;2023-12-04T14:19:00;22.33;;;14.43;;
12792;SDS011;6460;42.684;23.260;2023-12-04T14:21:28;24.37;;;14.73;;
12792;SDS011;6460;42.684;23.260;2023-12-04T14:23:57;19.23;;;14.20;;
12792;SDS011;6460;42.684;23.260;2023-12-04T14:26:28;18.17;;;12.57;;
12792;SDS011;6460;42.684;23.260;2023-12-04T14:28:57;21.60;;;15.33;;
12792;SDS011;6460;42.684;23.260;2023-12-04T14:31:28;21.03;;;13.93;;
12792;SDS011;6460;42.684;23.260;2023-12-04T14:33:57;24.47;;;14.70;;
12792;SDS011;6460;42.684;23.260;2023-12-04T14:36:30;24.03;;;16.27;;
12792;SDS011;6460;42.684;23.260;2023-12-04T14:39:03;29.83;;;15.70;;
12792;SDS011;6460;42.684;23.260;2023-12-04T14:41:59;25.67;;;17.43;;
12792;SDS011;6460;42.684;23.260;2023-12-04T14:48:05;21.80;;;14.40;;
12792;SDS011;6460;42.684;23.260;2023-12-04T14:50:36;22.87;;;13.53;;
12792;SDS011;6460;42.684;23.260;2023-12-04T14:53:07;22.37;;;13.77;;
12792;SDS011;6460;42.684;23.260;2023-12-04T14:55:46;19.73;;;13.43;;
12792;SDS011;6460;42.684;23.260;2023-12-04T14:58:34;20.40;;;13.17;;
12792;SDS011;6460;42.684;23.260;2023-12-04T15:01:21;20.40;;;12.47;;
12792;SDS011;6460;42.684;23.260;2023-12-04T15:04:11;21.57;;;12.07;;
12792;SDS011;6460;42.684;23.260;2023-12-04T16:15:30;45.67;;;23.77;;
12792;SDS011;6460;42.684;23.260;2023-12-04T16:18:33;35.03;;;18.13;;
12792;SDS011;6460;42.684;23.260;2023-12-04T16:21:53;37.23;;;19.70;;
12792;SDS011;6460;42.684;23.260;2023-12-04T17:08:50;47.67;;;27.23;;
12792;SDS011;6460;42.684;23.260;2023-12-04T17:11:20;56.80;;;33.67;;
12792;SDS011;6460;42.684;23.260;2023-12-04T17:29:21;42.80;;;24.77;;
12792;SDS011;6460;42.684;23.260;2023-12-04T18:05:35;42.60;;;26.73;;
12792;SDS011;6460;42.684;23.260;2023-12-04T18:26:20;59.47;;;34.27;;
12792;SDS011;6460;42.684;23.260;2023-12-04T18:28:54;72.20;;;37.50;;
12792;SDS011;6460;42.684;23.260;2023-12-04T18:31:22;62.27;;;34.80;;
12792;SDS011;6460;42.684;23.260;2023-12-04T18:33:52;47.33;;;30.03;;
12792;SDS011;6460;42.684;23.260;2023-12-04T18:36:28;58.37;;;35.87;;
12792;SDS011;6460;42.684;23.260;2023-12-04T18:41:37;50.10;;;29.83;;
12792;SDS011;6460;42.684;23.260;2023-12-04T18:44:04;55.47;;;32.60;;
12792;SDS011;6460;42.684;23.260;2023-12-04T18:46:33;66.13;;;37.40;;
12792;SDS011;6460;42.684;23.260;2023-12-04T18:49:01;72.90;;;37.77;;
12792;SDS011;6460;42.684;23.260;2023-12-04T18:51:31;93.30;;;48.03;;
12792;SDS011;6460;42.684;23.260;2023-12-04T18:54:01;69.87;;;40.70;;
12792;SDS011;6460;42.684;23.260;2023-12-04T18:56:29;78.00;;;42.37;;
12792;SDS011;6460;42.684;23.260;2023-12-04T18:58:58;91.27;;;47.57;;
12792;SDS011;6460;42.684;23.260;2023-12-04T19:01:26;68.87;;;39.47;;
12792;SDS011;6460;42.684;23.260;2023-12-04T19:03:54;79.53;;;44.13;;
12792;SDS011;6460;42.684;23.260;2023-12-04T19:06:23;80.87;;;45.47;;
12792;SDS011;6460;42.684;23.260;2023-12-04T19:08:51;68.40;;;40.07;;
12792;SDS011;6460;42.684;23.260;2023-12-04T19:11:19;71.97;;;40.07;;
12792;SDS011;6460;42.684;23.260;2023-12-04T19:13:47;60.13;;;36.10;;
12792;SDS011;6460;42.684;23.260;2023-12-04T19:16:16;59.50;;;34.40;;
12792;SDS011;6460;42.684;23.260;2023-12-04T19:18:44;51.70;;;31.83;;
12792;SDS011;6460;42.684;23.260;2023-12-04T19:21:16;52.10;;;31.63;;
12792;SDS011;6460;42.684;23.260;2023-12-04T19:23:43;51.30;;;29.43;;
12792;SDS011;6460;42.684;23.260;2023-12-04T19:26:11;50.97;;;29.67;;
12792;SDS011;6460;42.684;23.260;2023-12-04T19:28:40;52.73;;;30.30;;
12792;SDS011;6460;42.684;23.260;2023-12-04T19:31:26;53.80;;;30.23;;
12792;SDS011;6460;42.684;23.260;2023-12-04T19:33:57;50.13;;;30.60;;
12792;SDS011;6460;42.684;23.260;2023-12-04T19:36:32;54.30;;;31.27;;
12792;SDS011;6460;42.684;23.260;2023-12-04T19:38:59;48.93;;;30.43;;
12792;SDS011;6460;42.684;23.260;2023-12-04T19:41:29;49.50;;;30.07;;
12792;SDS011;6460;42.684;23.260;2023-12-04T19:43:58;43.93;;;28.17;;
12792;SDS011;6460;42.684;23.260;2023-12-04T19:46:28;41.80;;;25.00;;
12792;SDS011;6460;42.684;23.260;2023-12-04T19:48:57;41.57;;;23.93;;
12792;SDS011;6460;42.684;23.260;2023-12-04T19:51:30;48.30;;;27.23;;
12792;SDS011;6460;42.684;23.260;2023-12-04T19:53:58;40.47;;;25.00;;
12792;SDS011;6460;42.684;23.260;2023-12-04T19:56:26;43.50;;;25.57;;
12792;SDS011;6460;42.684;23.260;2023-12-04T19:58:55;42.57;;;25.77;;
12792;SDS011;6460;42.684;23.260;2023-12-04T20:01:30;46.47;;;26.40;;
12792;SDS011;6460;42.684;23.260;2023-12-04T20:04:14;44.87;;;25.47;;
12792;SDS011;6460;42.684;23.260;2023-12-04T20:06:53;41.10;;;25.37;;
12792;SDS011;6460;42.684;23.260;2023-12-04T20:09:26;46.57;;;26.43;;
12792;SDS011;6460;42.684;23.260;2023-12-04T20:11:56;42.23;;;27.70;;
12792;SDS011;6460;42.684;23.260;2023-12-04T20:14:26;47.30;;;28.93;;
12792;SDS011;6460;42.684;23.260;2023-12-04T20:16:57;56.97;;;33.20;;
12792;SDS011;6460;42.684;23.260;2023-12-04T20:19:29;57.10;;;33.43;;
12792;SDS011;6460;42.684;23.260;2023-12-04T20:21:56;59.20;;;35.90;;
12792;SDS011;6460;42.684;23.260;2023-12-04T20:24:26;207.03;;;127.40;;
12792;SDS011;6460;42.684;23.260;2023-12-04T20:26:53;58.10;;;36.40;;
12792;SDS011;6460;42.684;23.260;2023-12-04T20:29:21;50.07;;;33.07;;
12792;SDS011;6460;42.684;23.260;2023-12-04T20:31:48;65.07;;;34.93;;
12792;SDS011;6460;42.684;23.260;2023-12-04T20:34:17;66.63;;;37.60;;
12792;SDS011;6460;42.684;23.260;2023-12-04T20:36:44;60.43;;;33.17;;
12792;SDS011;6460;42.684;23.260;2023-12-04T20:39:14;48.23;;;28.67;;
12792;SDS011;6460;42.684;23.260;2023-12-04T20:41:41;45.67;;;26.67;;
12792;SDS011;6460;42.684;23.260;2023-12-04T20:44:09;41.63;;;26.43;;
12792;SDS011;6460;42.684;23.260;2023-12-04T20:46:38;43.53;;;26.50;;
12792;SDS011;6460;42.684;23.260;2023-12-04T20:49:08;45.30;;;27.53;;
12792;SDS011;6460;42.684;23.260;2023-12-04T20:51:37;39.10;;;25.87;;
12792;SDS011;6460;42.684;23.260;2023-12-04T20:54:06;42.67;;;26.47;;
12792;SDS011;6460;42.684;23.260;2023-12-04T20:56:34;44.03;;;27.50;;
12792;SDS011;6460;42.684;23.260;2023-12-04T20:59:02;45.77;;;27.87;;
12792;SDS011;6460;42.684;23.260;2023-12-04T21:01:36;39.63;;;25.83;;
12792;SDS011;6460;42.684;23.260;2023-12-04T21:04:05;47.67;;;28.93;;
12792;SDS011;6460;42.684;23.260;2023-12-04T21:06:34;42.97;;;28.47;;
12792;SDS011;6460;42.684;23.260;2023-12-04T21:09:05;45.80;;;26.83;;
12792;SDS011;6460;42.684;23.260;2023-12-04T21:11:37;44.90;;;27.80;;
12792;SDS011;6460;42.684;23.260;2023-12-04T21:14:11;43.93;;;27.73;;
12792;SDS011;6460;42.684;23.260;2023-12-04T21:16:43;46.40;;;28.87;;
12792;SDS011;6460;42.684;23.260;2023-12-04T21:19:28;46.40;;;26.87;;
12792;SDS011;6460;42.684;23.260;2023-12-04T21:21:59;43.77;;;25.17;;
12792;SDS011;6460;42.684;23.260;2023-12-04T21:24:32;32.43;;;21.83;;
12792;SDS011;6460;42.684;23.260;2023-12-04T21:27:03;32.27;;;19.67;;
12792;SDS011;6460;42.684;23.260;2023-12-04T21:29:31;28.50;;;17.33;;
12792;SDS011;6460;42.684;23.260;2023-12-04T21:32:00;23.17;;;14.53;;
12792;SDS011;6460;42.684;23.260;2023-12-04T21:34:29;26.07;;;16.10;;
12792;SDS011;6460;42.684;23.260;2023-12-04T21:37:03;24.00;;;15.43;;
12792;SDS011;6460;42.684;23.260;2023-12-04T21:39:32;25.07;;;16.53;;
12792;SDS011;6460;42.684;23.260;2023-12-04T23:05:33;22.13;;;13.67;;
12792;SDS011;6460;42.684;23.260;2023-12-04T23:08:01;19.10;;;12.20;;
12792;SDS011;6460;42.684;23.260;2023-12-04T23:10:29;19.87;;;12.00;;
12792;SDS011;6460;42.684;23.260;2023-12-04T23:12:58;20.13;;;13.40;;
12792;SDS011;6460;42.684;23.260;2023-12-04T23:15:26;20.33;;;13.43;;
12792;SDS011;6460;42.684;23.260;2023-12-04T23:17:54;21.00;;;12.97;;
12792;SDS011;6460;42.684;23.260;2023-12-04T23:59:46;25.57;;;14.23;;
